Aviation Digital Data Service (ADDS)

Output produced by METARs form (1143 UTC 19 February 2019)
found at http://www.aviationweather.gov/metar/data/
 
METAR text: UWLW 191100Z 31009MPS 8000 DRSN NSC M10/M18 Q1014 R02/820551 NOSIG RMK QFE753
Conditions at: UWLW (ULYANOVSK , RU) observed 1100 UTC 19 February 2019
Temperature: -10.0°C (14°F)
Dewpoint: -18.0°C (-0°F) [RH = 52%]
Pressure (altimeter): 29.94 inches Hg (1014.0 mb)
Winds: from the NW (310 degrees) at 20 MPH (17 knots; 8.7 m/s)
Visibility: 5 miles ( 8 km)
Ceiling: at least 12,000 feet AGL
Clouds: sky clear below 12,000 feet AGL
Weather: DRSN  (low drifting snow)

METAR text: UWLW 191000Z 32007MPS 8000 DRSN NSC M09/M19 Q1014 R02/820551 NOSIG RMK QFE753
Conditions at: UWLW (ULYANOVSK , RU) observed 1000 UTC 19 February 2019
Temperature: -9.0°C (16°F)
Dewpoint: -19.0°C (-2°F) [RH = 44%]
Pressure (altimeter): 29.94 inches Hg (1014.0 mb)
Winds: from the NW (320 degrees) at 16 MPH (14 knots; 7.2 m/s)
Visibility: 5 miles ( 8 km)
Ceiling: at least 12,000 feet AGL
Clouds: sky clear below 12,000 feet AGL
Weather: DRSN  (low drifting snow)

METAR text: UWLW 190900Z 33008MPS 8000 DRSN NSC M10/M18 Q1014 R02/820551 NOSIG RMK QFE753
Conditions at: UWLW (ULYANOVSK , RU) observed 0900 UTC 19 February 2019
Temperature: -10.0°C (14°F)
Dewpoint: -18.0°C (-0°F) [RH = 52%]
Pressure (altimeter): 29.94 inches Hg (1014.0 mb)
Winds: from the NNW (330 degrees) at 18 MPH (16 knots; 8.2 m/s)
Visibility: 5 miles ( 8 km)
Ceiling: at least 12,000 feet AGL
Clouds: sky clear below 12,000 feet AGL
Weather: DRSN  (low drifting snow)

METAR text: UWLW 190800Z 33009MPS 8000 DRSN NSC M11/M18 Q1013 R02/820545 NOSIG RMK QFE753
Conditions at: UWLW (ULYANOVSK , RU) observed 0800 UTC 19 February 2019
Temperature: -11.0°C (12°F)
Dewpoint: -18.0°C (-0°F) [RH = 56%]
Pressure (altimeter): 29.91 inches Hg (1013.0 mb)
Winds: from the NNW (330 degrees) at 20 MPH (17 knots; 8.7 m/s)
Visibility: 5 miles ( 8 km)
Ceiling: at least 12,000 feet AGL
Clouds: sky clear below 12,000 feet AGL
Weather: DRSN  (low drifting snow)

METAR text: UWLW 190700Z 33009MPS 8000 DRSN NSC M11/M18 Q1013 R02/820545 NOSIG RMK QFE753
Conditions at: UWLW (ULYANOVSK , RU) observed 0700 UTC 19 February 2019
Temperature: -11.0°C (12°F)
Dewpoint: -18.0°C (-0°F) [RH = 56%]
Pressure (altimeter): 29.91 inches Hg (1013.0 mb)
Winds: from the NNW (330 degrees) at 20 MPH (17 knots; 8.7 m/s)
Visibility: 5 miles ( 8 km)
Ceiling: at least 12,000 feet AGL
Clouds: sky clear below 12,000 feet AGL
Weather: DRSN  (low drifting snow)

METAR text: UWLW 190600Z 32008MPS 8000 DRSN NSC M12/M18 Q1012 R02/850540 NOSIG RMK QFE752
Conditions at: UWLW (ULYANOVSK , RU) observed 0600 UTC 19 February 2019
Temperature: -12.0°C (10°F)
Dewpoint: -18.0°C (-0°F) [RH = 61%]
Pressure (altimeter): 29.88 inches Hg (1012.0 mb)
Winds: from the NW (320 degrees) at 18 MPH (16 knots; 8.2 m/s)
Visibility: 5 miles ( 8 km)
Ceiling: at least 12,000 feet AGL
Clouds: sky clear below 12,000 feet AGL
Weather: DRSN  (low drifting snow)

METAR text: UWLW 190500Z 34009MPS 8000 DRSN NSC M12/M18 Q1012 R02/850540 NOSIG RMK QFE752
Conditions at: UWLW (ULYANOVSK , RU) observed 0500 UTC 19 February 2019
Temperature: -12.0°C (10°F)
Dewpoint: -18.0°C (-0°F) [RH = 61%]
Pressure (altimeter): 29.88 inches Hg (1012.0 mb)
Winds: from the NNW (340 degrees) at 20 MPH (17 knots; 8.7 m/s)
Visibility: 5 miles ( 8 km)
Ceiling: at least 12,000 feet AGL
Clouds: sky clear below 12,000 feet AGL
Weather: DRSN  (low drifting snow)

METAR text: UWLW 190400Z 34011MPS 8000 DRSN NSC M12/M18 Q1011 R02/920545 NOSIG RMK QFE751
Conditions at: UWLW (ULYANOVSK , RU) observed 0400 UTC 19 February 2019
Temperature: -12.0°C (10°F)
Dewpoint: -18.0°C (-0°F) [RH = 61%]
Pressure (altimeter): 29.85 inches Hg (1011.0 mb)
Winds: from the NNW (340 degrees) at 24 MPH (21 knots; 10.8 m/s)
Visibility: 5 miles ( 8 km)
Ceiling: at least 12,000 feet AGL
Clouds: sky clear below 12,000 feet AGL
Weather: DRSN  (low drifting snow)

METAR text: UWLW 190300Z 34010MPS 8000 BLSN NSC M12/M17 Q1010 R02/920545 NOSIG RMK QFE751
Conditions at: UWLW (ULYANOVSK , RU) observed 0300 UTC 19 February 2019
Temperature: -12.0°C (10°F)
Dewpoint: -17.0°C ( 1°F) [RH = 66%]
Pressure (altimeter): 29.82 inches Hg (1010.0 mb)
Winds: from the NNW (340 degrees) at 22 MPH (19 knots; 9.8 m/s)
Visibility: 5 miles ( 8 km)
Ceiling: at least 12,000 feet AGL
Clouds: sky clear below 12,000 feet AGL
Weather: BLSN  (blowing snow)

METAR text: UWLW 190200Z 34011MPS 8000 BLSN FEW046 M11/M17 Q1009 R02/920542 NOSIG RMK QFE750
Conditions at: UWLW (ULYANOVSK , RU) observed 0200 UTC 19 February 2019
Temperature: -11.0°C (12°F)
Dewpoint: -17.0°C ( 1°F) [RH = 61%]
Pressure (altimeter): 29.79 inches Hg (1009.0 mb)
Winds: from the NNW (340 degrees) at 24 MPH (21 knots; 10.8 m/s)
Visibility: 5 miles ( 8 km)
Ceiling: at least 12,000 feet AGL
Clouds: few clouds at 4600 feet AGL
Weather: BLSN  (blowing snow)

METAR text: UWLW 190100Z 34011MPS 5000 BLSN FEW040 M11/M17 Q1008 R02/920542 NOSIG RMK QFE749
Conditions at: UWLW (ULYANOVSK , RU) observed 0100 UTC 19 February 2019
Temperature: -11.0°C (12°F)
Dewpoint: -17.0°C ( 1°F) [RH = 61%]
Pressure (altimeter): 29.76 inches Hg (1008.0 mb)
Winds: from the NNW (340 degrees) at 24 MPH (21 knots; 10.8 m/s)
Visibility: 3 miles ( 5 km)
Ceiling: at least 12,000 feet AGL
Clouds: few clouds at 4000 feet AGL
Weather: BLSN  (blowing snow)

METAR text: UWLW 190000Z 34014MPS 2500 BLSN BKN038 M10/M16 Q1008 R02/920542 NOSIG RMK QFE749
Conditions at: UWLW (ULYANOVSK , RU) observed 0000 UTC 19 February 2019
Temperature: -10.0°C (14°F)
Dewpoint: -16.0°C ( 3°F) [RH = 61%]
Pressure (altimeter): 29.76 inches Hg (1008.0 mb)
Winds: from the NNW (340 degrees) at 31 MPH (27 knots; 13.9 m/s)
Visibility: 1.55 miles (2.49 km)
Ceiling: 3800 feet AGL
Clouds: broken clouds at 3800 feet AGL
Weather: BLSN  (blowing snow)

METAR text: UWLW 182300Z 34014MPS 2500 -SN BLSN BKN010 OVC033 M09/M15 Q1007 R02/920542 NOSIG RMK QFE748
Conditions at: UWLW (ULYANOVSK , RU) observed 2300 UTC 18 February 2019
Temperature: -9.0°C (16°F)
Dewpoint: -15.0°C ( 5°F) [RH = 62%]
Pressure (altimeter): 29.73 inches Hg (1007.0 mb)
Winds: from the NNW (340 degrees) at 31 MPH (27 knots; 13.9 m/s)
Visibility: 1.55 miles (2.49 km)
Ceiling: 1000 feet AGL
Clouds: broken clouds at 1000 feet AGL
overcast cloud deck at 3300 feet AGL
Weather: -SN BLSN  (light snow, blowing snow)

METAR text: UWLW 182200Z 34013MPS 3400 BLSN BKN008 OVC026 M09/M14 Q1006 R02/920542 NOSIG RMK QFE747
Conditions at: UWLW (ULYANOVSK , RU) observed 2200 UTC 18 February 2019
Temperature: -9.0°C (16°F)
Dewpoint: -14.0°C ( 7°F) [RH = 67%]
Pressure (altimeter): 29.70 inches Hg (1006.0 mb)
Winds: from the NNW (340 degrees) at 29 MPH (25 knots; 12.9 m/s)
Visibility: 2.11 miles (3.40 km)
Ceiling: 800 feet AGL
Clouds: broken clouds at 800 feet AGL
overcast cloud deck at 2600 feet AGL
Weather: BLSN  (blowing snow)

METAR text: UWLW 182100Z 33013MPS 2800 -SN BLSN BKN008 OVC026 M08/M12 Q1005 R02/920542 NOSIG RMK QFE747
Conditions at: UWLW (ULYANOVSK , RU) observed 2100 UTC 18 February 2019
Temperature: -8.0°C (18°F)
Dewpoint: -12.0°C (10°F) [RH = 73%]
Pressure (altimeter): 29.68 inches Hg (1005.0 mb)
Winds: from the NNW (330 degrees) at 29 MPH (25 knots; 12.9 m/s)
Visibility: 1.74 miles (2.80 km)
Ceiling: 800 feet AGL
Clouds: broken clouds at 800 feet AGL
overcast cloud deck at 2600 feet AGL
Weather: -SN BLSN  (light snow, blowing snow)

METAR text: UWLW 182000Z 33012MPS 3500 BLSN BKN007 OVC026 M08/M11 Q1004 R02/920542 NOSIG RMK QFE746
Conditions at: UWLW (ULYANOVSK , RU) observed 2000 UTC 18 February 2019
Temperature: -8.0°C (18°F)
Dewpoint: -11.0°C (12°F) [RH = 79%]
Pressure (altimeter): 29.65 inches Hg (1004.0 mb)
Winds: from the NNW (330 degrees) at 26 MPH (23 knots; 11.8 m/s)
Visibility: 2.17 miles (3.49 km)
Ceiling: 700 feet AGL
Clouds: broken clouds at 700 feet AGL
overcast cloud deck at 2600 feet AGL
Weather: BLSN  (blowing snow)

METAR text: UWLW 181900Z 34012MPS 3000 -SN BLSN BKN007 OVC024 M07/M10 Q1003 R02/920542 TEMPO 0600 +SN BLSN VV003 RMK QFE745
Conditions at: UWLW (ULYANOVSK , RU) observed 1900 UTC 18 February 2019
Temperature: -7.0°C (19°F)
Dewpoint: -10.0°C (14°F) [RH = 79%]
Pressure (altimeter): 29.62 inches Hg (1003.0 mb)
Winds: from the NNW (340 degrees) at 26 MPH (23 knots; 11.8 m/s)
Visibility: 1.86 miles (2.99 km)
Ceiling: 700 feet AGL
Clouds: broken clouds at 700 feet AGL
overcast cloud deck at 2400 feet AGL
Weather: -SN BLSN  (light snow, blowing snow)

METAR text: UWLW 181800Z 34012MPS 2900 R02/P2000N -SN BLSN OVC032 M06/M10 Q1002 R02/920542 NOSIG RMK QFE745
Conditions at: UWLW (ULYANOVSK , RU) observed 1800 UTC 18 February 2019
Temperature: -6.0°C (21°F)
Dewpoint: -10.0°C (14°F) [RH = 73%]
Pressure (altimeter): 29.59 inches Hg (1002.0 mb)
Winds: from the NNW (340 degrees) at 26 MPH (23 knots; 11.8 m/s)
Visibility: 1.80 miles (2.90 km)
Ceiling: 3200 feet AGL
Clouds: overcast cloud deck at 3200 feet AGL
Weather: -SN BLSN  (light snow, blowing snow)

METAR text: UWLW 181700Z 34014MPS 1100 1000S R02/2000D SN BLSN BKN009 OVC031 M06/M10 Q1001 R02/920542 NOSIG RMK QFE744
Conditions at: UWLW (ULYANOVSK , RU) observed 1700 UTC 18 February 2019
Temperature: -6.0°C (21°F)
Dewpoint: -10.0°C (14°F) [RH = 73%]
Pressure (altimeter): 29.56 inches Hg (1001.0 mb)
Winds: from the NNW (340 degrees) at 31 MPH (27 knots; 13.9 m/s)
Visibility: 0.68 miles (1.09 km)
Ceiling: 900 feet AGL
Clouds: broken clouds at 900 feet AGL
overcast cloud deck at 3100 feet AGL
Weather: BLSN SN  (blowing snow, moderate snow)

METAR text: UWLW 181600Z 34015G22MPS 1000 R02/2000D SN BLSN BKN006 OVC026 M06/M10 Q1000 R02/920542 NOSIG RMK QFE743
Conditions at: UWLW (ULYANOVSK , RU) observed 1600 UTC 18 February 2019
Temperature: -6.0°C (21°F)
Dewpoint: -10.0°C (14°F) [RH = 73%]
Pressure (altimeter): 29.53 inches Hg (1000.0 mb)
Winds: from the NNW (340 degrees) at 33 MPH (29 knots; 14.9 m/s)
gusting to 49 MPH (43 knots; 22.1 m/s)
Visibility: 0.62 miles (1.00 km)
Ceiling: 600 feet AGL
Clouds: broken clouds at 600 feet AGL
overcast cloud deck at 2600 feet AGL
Weather: BLSN SN  (blowing snow, moderate snow)

METAR text: UWLW 181500Z 33014MPS 2000 R02/P2000D SN BLSN BKN006 OVC026 M05/M08 Q0999 R02/920542 NOSIG RMK QFE742
Conditions at: UWLW (ULYANOVSK , RU) observed 1500 UTC 18 February 2019
Temperature: -5.0°C (23°F)
Dewpoint: -8.0°C (18°F) [RH = 79%]
Pressure (altimeter): 29.50 inches Hg (999.0 mb)
Winds: from the NNW (330 degrees) at 31 MPH (27 knots; 13.9 m/s)
Visibility: 1.24 miles (2.00 km)
Ceiling: 600 feet AGL
Clouds: broken clouds at 600 feet AGL
overcast cloud deck at 2600 feet AGL
Weather: BLSN SN  (blowing snow, moderate snow)

METAR text: UWLW 181400Z 32011MPS 1100 1000N R02/1200D SN BLSN BKN008 OVC020 M04/M07 Q0997 R02/920542 NOSIG RMK QFE741
Conditions at: UWLW (ULYANOVSK , RU) observed 1400 UTC 18 February 2019
Temperature: -4.0°C (25°F)
Dewpoint: -7.0°C (19°F) [RH = 80%]
Pressure (altimeter): 29.44 inches Hg (997.0 mb)
Winds: from the NW (320 degrees) at 24 MPH (21 knots; 10.8 m/s)
Visibility: 0.68 miles (1.09 km)
Ceiling: 800 feet AGL
Clouds: broken clouds at 800 feet AGL
overcast cloud deck at 2000 feet AGL
Weather: BLSN SN  (blowing snow, moderate snow)

METAR text: UWLW 181300Z 33012G18MPS 1400 1200W R02/1400D SN BLSN BKN006 OVC021 M03/M06 Q0995 R02/500550 NOSIG RMK QFE740
Conditions at: UWLW (ULYANOVSK , RU) observed 1300 UTC 18 February 2019
Temperature: -3.0°C (27°F)
Dewpoint: -6.0°C (21°F) [RH = 80%]
Pressure (altimeter): 29.38 inches Hg (995.0 mb)
Winds: from the NNW (330 degrees) at 26 MPH (23 knots; 11.8 m/s)
gusting to 40 MPH (35 knots; 18.0 m/s)
Visibility: 0.87 miles (1.40 km)
Ceiling: 600 feet AGL
Clouds: broken clouds at 600 feet AGL
overcast cloud deck at 2100 feet AGL
Weather: BLSN SN  (blowing snow, moderate snow)

METAR text: UWLW 181200Z 33013MPS 2300 -SN BLSN OVC023 M03/M06 Q0994 R02/500550 NOSIG RMK QFE738
Conditions at: UWLW (ULYANOVSK , RU) observed 1200 UTC 18 February 2019
Temperature: -3.0°C (27°F)
Dewpoint: -6.0°C (21°F) [RH = 80%]
Pressure (altimeter): 29.35 inches Hg (994.0 mb)
Winds: from the NNW (330 degrees) at 29 MPH (25 knots; 12.9 m/s)
Visibility: 1.43 miles (2.30 km)
Ceiling: 2300 feet AGL
Clouds: overcast cloud deck at 2300 feet AGL
Weather: -SN BLSN  (light snow, blowing snow)

METAR text: UWLW 181100Z 33013G18MPS 2100 -SN BLSN BKN008 OVC021 M02/M05 Q0992 R02/500550 NOSIG RMK QFE737
Conditions at: UWLW (ULYANOVSK , RU) observed 1100 UTC 18 February 2019
Temperature: -2.0°C (28°F)
Dewpoint: -5.0°C (23°F) [RH = 80%]
Pressure (altimeter): 29.29 inches Hg (992.0 mb)
Winds: from the NNW (330 degrees) at 29 MPH (25 knots; 12.9 m/s)
gusting to 40 MPH (35 knots; 18.0 m/s)
Visibility: 1.30 miles (2.09 km)
Ceiling: 800 feet AGL
Clouds: broken clouds at 800 feet AGL
overcast cloud deck at 2100 feet AGL
Weather: -SN BLSN  (light snow, blowing snow)

METAR text: UWLW 181000Z 32012MPS 4100 -SN BLSN BKN006 OVC020 M02/M04 Q0991 R02/500550 NOSIG RMK QFE736
Conditions at: UWLW (ULYANOVSK , RU) observed 1000 UTC 18 February 2019
Temperature: -2.0°C (28°F)
Dewpoint: -4.0°C (25°F) [RH = 86%]
Pressure (altimeter): 29.26 inches Hg (991.0 mb)
Winds: from the NW (320 degrees) at 26 MPH (23 knots; 11.8 m/s)
Visibility: 2.55 miles (4.10 km)
Ceiling: 600 feet AGL
Clouds: broken clouds at 600 feet AGL
overcast cloud deck at 2000 feet AGL
Weather: -SN BLSN  (light snow, blowing snow)

METAR text: UWLW 180900Z 32012MPS 2100 1100S R02/1100U SN BLSN BKN006 OVC019 M01/M03 Q0990 R02/500550 NOSIG RMK QFE735
Conditions at: UWLW (ULYANOVSK , RU) observed 0900 UTC 18 February 2019
Temperature: -1.0°C (30°F)
Dewpoint: -3.0°C (27°F) [RH = 86%]
Pressure (altimeter): 29.23 inches Hg (990.0 mb)
Winds: from the NW (320 degrees) at 26 MPH (23 knots; 11.8 m/s)
Visibility: 1.30 miles (2.09 km)
Ceiling: 600 feet AGL
Clouds: broken clouds at 600 feet AGL
overcast cloud deck at 1900 feet AGL
Weather: BLSN SN  (blowing snow, moderate snow)

METAR text: UWLW 180800Z 32012G17MPS 1400 0700S R02/0700D +SN BLSN VV006 M01/M02 Q0989 R02/500550 NOSIG RMK QFE735
Conditions at: UWLW (ULYANOVSK , RU) observed 0800 UTC 18 February 2019
Temperature: -1.0°C (30°F)
Dewpoint: -2.0°C (28°F) [RH = 93%]
Pressure (altimeter): 29.20 inches Hg (989.0 mb)
Winds: from the NW (320 degrees) at 26 MPH (23 knots; 11.8 m/s)
gusting to 38 MPH (33 knots; 17.0 m/s)
Visibility: 0.87 miles (1.40 km)
Ceiling: indefinite ceiling with vertical visibility of 600 feet AGL
Clouds: obscured sky
Weather: BLSN +SN  (blowing snow, heavy snow)

METAR text: UWLW 180700Z 32010MPS 3200 -SN BKN006 OVC013 M00/M02 Q0988 R02/491039 NOSIG RMK QFE734
Conditions at: UWLW (ULYANOVSK , RU) observed 0700 UTC 18 February 2019
Temperature: 0.0°C (32°F)
Dewpoint: -2.0°C (28°F) [RH = 86%]
Pressure (altimeter): 29.17 inches Hg (988.0 mb)
Winds: from the NW (320 degrees) at 22 MPH (19 knots; 9.8 m/s)
Visibility: 1.99 miles (3.20 km)
Ceiling: 600 feet AGL
Clouds: broken clouds at 600 feet AGL
overcast cloud deck at 1300 feet AGL
Weather: -SN  (light snow)

METAR text: UWLW 180600Z 32009MPS 1800 1300N R02/2000U SN BLSN OVC005 M00/M01 Q0987 R02/491039 TEMPO 35012MPS 0500 +SN BLSN VV004 RMK QFE733
Conditions at: UWLW (ULYANOVSK , RU) observed 0600 UTC 18 February 2019
Temperature: 0.0°C (32°F)
Dewpoint: -1.0°C (30°F) [RH = 93%]
Pressure (altimeter): 29.14 inches Hg (987.0 mb)
Winds: from the NW (320 degrees) at 20 MPH (17 knots; 8.7 m/s)
Visibility: 1.12 miles (1.80 km)
Ceiling: 500 feet AGL
Clouds: overcast cloud deck at 500 feet AGL
Weather: BLSN SN  (blowing snow, moderate snow)

METAR text: UWLW 180500Z 32009MPS 8000 -SN OVC008 M01/M02 Q0986 R02/491039 NOSIG RMK QFE733
Conditions at: UWLW (ULYANOVSK , RU) observed 0500 UTC 18 February 2019
Temperature: -1.0°C (30°F)
Dewpoint: -2.0°C (28°F) [RH = 93%]
Pressure (altimeter): 29.11 inches Hg (986.0 mb)
Winds: from the NW (320 degrees) at 20 MPH (17 knots; 8.7 m/s)
Visibility: 5 miles ( 8 km)
Ceiling: 800 feet AGL
Clouds: overcast cloud deck at 800 feet AGL
Weather: -SN  (light snow)

METAR text: UWLW 180400Z 32007MPS 5000 -SN OVC011 M01/M02 Q0986 R20/491039 NOSIG RMK QFE734
Conditions at: UWLW (ULYANOVSK , RU) observed 0400 UTC 18 February 2019
Temperature: -1.0°C (30°F)
Dewpoint: -2.0°C (28°F) [RH = 93%]
Pressure (altimeter): 29.11 inches Hg (986.0 mb)
Winds: from the NW (320 degrees) at 16 MPH (14 knots; 7.2 m/s)
Visibility: 3 miles ( 5 km)
Ceiling: 1100 feet AGL
Clouds: overcast cloud deck at 1100 feet AGL
Weather: -SN  (light snow)

METAR text: UWLW 180300Z 31006MPS 2100 -SN OVC008 M01/M02 Q0985 R20/850542 NOSIG RMK QFE734
Conditions at: UWLW (ULYANOVSK , RU) observed 0300 UTC 18 February 2019
Temperature: -1.0°C (30°F)
Dewpoint: -2.0°C (28°F) [RH = 93%]
Pressure (altimeter): 29.08 inches Hg (985.0 mb)
Winds: from the NW (310 degrees) at 14 MPH (12 knots; 6.2 m/s)
Visibility: 1.30 miles (2.09 km)
Ceiling: 800 feet AGL
Clouds: overcast cloud deck at 800 feet AGL
Weather: -SN  (light snow)

METAR text: UWLW 180200Z 31006MPS 5000 -SN OVC015 M01/M02 Q0985 R20/492032 NOSIG RMK QFE734
Conditions at: UWLW (ULYANOVSK , RU) observed 0200 UTC 18 February 2019
Temperature: -1.0°C (30°F)
Dewpoint: -2.0°C (28°F) [RH = 93%]
Pressure (altimeter): 29.08 inches Hg (985.0 mb)
Winds: from the NW (310 degrees) at 14 MPH (12 knots; 6.2 m/s)
Visibility: 3 miles ( 5 km)
Ceiling: 1500 feet AGL
Clouds: overcast cloud deck at 1500 feet AGL
Weather: -SN  (light snow)

METAR text: UWLW 180100Z 31005MPS 8000 -SN OVC014 M01/M02 Q0985 R20/492032 NOSIG RMK QFE734
Conditions at: UWLW (ULYANOVSK , RU) observed 0100 UTC 18 February 2019
Temperature: -1.0°C (30°F)
Dewpoint: -2.0°C (28°F) [RH = 93%]
Pressure (altimeter): 29.08 inches Hg (985.0 mb)
Winds: from the NW (310 degrees) at 12 MPH (10 knots; 5.1 m/s)
Visibility: 5 miles ( 8 km)
Ceiling: 1400 feet AGL
Clouds: overcast cloud deck at 1400 feet AGL
Weather: -SN  (light snow)

METAR text: UWLW 180000Z 30005MPS 8000 -SN OVC014 M01/M02 Q0985 R20/492032 NOSIG RMK QFE734
Conditions at: UWLW (ULYANOVSK , RU) observed 0000 UTC 18 February 2019
Temperature: -1.0°C (30°F)
Dewpoint: -2.0°C (28°F) [RH = 93%]
Pressure (altimeter): 29.08 inches Hg (985.0 mb)
Winds: from the WNW (300 degrees) at 12 MPH (10 knots; 5.1 m/s)
Visibility: 5 miles ( 8 km)
Ceiling: 1400 feet AGL
Clouds: overcast cloud deck at 1400 feet AGL
Weather: -SN  (light snow)

Forecast for: UWLW (ULYANOVSK , RU)
Text: TAF UWLW 191045Z 1912/2012 26006G12MPS 8000 BKN015
Forecast period: 1200 to 1500 UTC 19 February 2019
Forecast type: FROM: standard forecast or significant change
Winds: from the W (260 degrees) at 14 MPH (12 knots; 6.2 m/s)
gusting to 26 MPH (23 knots; 11.8 m/s)
Visibility: 5 miles (8 km)
Ceiling: 1500 feet AGL
Clouds: broken clouds at 1500 feet AGL
Weather: no significant weather forecast for this period
Text: TEMPO 1912/1915 31008G14MPS 5000 -SN BLSN
Forecast period: 1200 to 1500 UTC 19 February 2019
Forecast type: TEMPORARY: The following changes expected for less than half the time period
Winds: from the NW (310 degrees) at 18 MPH (16 knots; 8.2 m/s)
gusting to 31 MPH (27 knots; 13.9 m/s)
Visibility: 3 miles (5 km)
Ceiling: unknown
Clouds: missing
Weather: -SN BLSN  (light snow, blowing snow)
Text: BECMG 1915/1917 23007MPS
Forecast period: 1500 UTC 19 February 2019 to 1200 UTC 20 February 2019
Forecast type: BECOMING: Conditions expected to become as follows by 1700 UTC 19 February 2019
Winds: from the SW (230 degrees) at 16 MPH (14 knots; 7.2 m/s)
Visibility: 5 miles (8 km)
Ceiling: 1500 feet AGL
Clouds: broken clouds at 1500 feet AGL
Weather: no significant weather forecast for this period
Text: TEMPO 1917/2006 20005MPS 3100 -SN BKN010
Forecast period: 1700 UTC 19 February 2019 to 0600 UTC 20 February 2019
Forecast type: TEMPORARY: The following changes expected for less than half the time period
Winds: from the SSW (200 degrees) at 12 MPH (10 knots; 5.1 m/s)
Visibility: 1.93 miles (3.11 km)
Ceiling: 1000 feet AGL
Clouds: broken clouds at 1000 feet AGL
Weather: -SN  (light snow)